Time;durP1;ratioP1;P1;durP2;ratioP2;P2;SDS_P1;SDS_P2;PMS_P1;PMS_P2;Temp;Humidity;BMP_temperature;BMP_pressure;BME280_temperature;BME280_humidity;BME280_pressure;Samples;Min_cycle;Max_cycle;Signal;HPM_P1;HPM_P2
2022/06/07 00:00:23;;;;;;;;;;;;;;;23.35;68.85;100036.66;2036081;28;19915;-53
2022/06/07 00:01:23;;;;;;;;;;;;;;;23.34;68.17;100046.16;2033399;28;19907;-54
2022/06/07 00:02:29;;;;;;;;;;;;;;;23.33;67.63;100060.41;2031003;28;19911;-53
2022/06/07 00:03:29;;;;;;;;;;;;;;;23.32;67.19;100064.41;2031240;28;20594;-53
2022/06/07 00:04:30;;;;;;;;;;;;;;;23.30;67.65;100062.09;2027571;29;20091;-53
2022/06/07 00:05:31;;;;;;;;;;;;;;;23.27;67.87;100057.44;2028764;29;20377;-51
2022/06/07 00:06:31;;;;;;;;;;;;;;;23.26;68.09;100061.44;2034537;28;19934;-53
2022/06/07 00:07:32;;;;;;;;;;;;;;;23.26;67.90;100066.97;2030762;29;19954;-53
2022/06/07 00:08:32;;;;;;;;;;;;;;;23.24;68.19;100063.84;2031834;28;19918;-54
2022/06/07 00:09:33;;;;;;;;;;;;;;;23.24;68.09;100044.50;2037964;29;20290;-53
2022/06/07 00:10:33;;;;;;;;;;;;;;;23.23;68.33;100045.72;2034905;28;20124;-50
2022/06/07 00:11:33;;;;;;;;;;;;;;;23.24;68.57;100040.97;2036476;28;20695;-53
2022/06/07 00:12:34;;;;;;;;;;;;;;;23.23;68.59;100044.94;2037715;28;19956;-53
2022/06/07 00:13:34;;;;;;;;;;;;;;;23.23;68.65;100045.72;2034155;28;19914;-54
2022/06/07 00:14:34;;;;;;;;;;;;;;;23.22;68.79;100057.97;2034237;29;20321;-51
2022/06/07 00:15:35;;;;;;;;;;;;;;;23.24;68.70;100063.06;2031431;28;19946;-53
2022/06/07 00:16:35;;;;;;;;;;;;;;;23.22;68.79;100057.97;2030783;28;20312;-52
2022/06/07 00:17:35;;;;;;;;;;;;;;;23.21;68.82;100053.69;2031927;28;19914;-54
2022/06/07 00:18:36;;;;;;;;;;;;;;;23.22;68.83;100043.38;2034147;28;20392;-53
2022/06/07 00:19:36;;;;;;;;;;;;;;;23.22;68.90;100029.56;2034415;29;19906;-51
2022/06/07 00:20:37;;;;;;;;;;;;;;;23.22;69.01;100021.28;2038032;28;19914;-54
2022/06/07 00:21:37;;;;;;;;;;;;;;;23.21;69.09;100015.00;2036691;29;20376;-53
2022/06/07 00:22:38;;;;;;;;;;;;;;;23.22;69.08;100011.00;2032773;28;19931;-51
2022/06/07 00:23:38;;;;;;;;;;;;;;;23.22;69.02;100010.22;2035624;28;20325;-52
2022/06/07 00:24:39;;;;;;;;;;;;;;;23.21;69.26;100009.50;2035252;29;19989;-50
2022/06/07 00:25:40;;;;;;;;;;;;;;;23.21;69.18;100012.25;2031594;28;19915;-51
2022/06/07 00:26:41;;;;;;;;;;;;;;;23.21;69.39;100014.25;2024159;29;19908;-53
2022/06/07 00:27:41;;;;;;;;;;;;;;;23.21;69.33;100017.78;2026903;29;19981;-53
2022/06/07 00:28:42;;;;;;;;;;;;;;;23.21;69.37;100014.25;2033830;28;19958;-53
2022/06/07 00:29:44;;;;;;;;;;;;;;;23.21;69.37;100017.78;2030685;29;19945;-53
2022/06/07 00:30:45;;;;;;;;;;;;;;;23.21;69.43;100015.00;2035343;28;20328;-53
2022/06/07 00:31:45;;;;;;;;;;;;;;;23.21;69.12;100015.00;2036610;28;20410;-53
2022/06/07 00:32:46;;;;;;;;;;;;;;;23.22;68.95;100007.47;2030690;28;19918;-53
2022/06/07 00:33:46;;;;;;;;;;;;;;;23.23;69.41;100011.78;2032846;28;19910;-54
2022/06/07 00:34:47;;;;;;;;;;;;;;;23.23;69.44;100009.81;2032468;29;19914;-53
2022/06/07 00:35:47;;;;;;;;;;;;;;;23.23;69.69;100006.25;2030763;28;19914;-53
2022/06/07 00:36:47;;;;;;;;;;;;;;;23.22;69.43;100005.47;2034999;28;20360;-52
2022/06/07 00:37:48;;;;;;;;;;;;;;;23.21;69.62;100003.19;2032050;28;19915;-53
2022/06/07 00:38:48;;;;;;;;;;;;;;;23.22;69.78;100005.47;2035285;28;19915;-53
2022/06/07 00:39:49;;;;;;;;;;;;;;;23.23;69.85;100000.72;2031619;28;19922;-52
2022/06/07 00:40:49;;;;;;;;;;;;;;;23.22;70.05;100001.94;2034004;28;19918;-53
2022/06/07 00:41:49;;;;;;;;;;;;;;;23.21;69.95;99998.44;2035213;28;20215;-53
2022/06/07 00:42:50;;;;;;;;;;;;;;;23.22;69.82;100001.94;2029197;28;19915;-54
2022/06/07 00:44:08;;;;;;;;;;;;;;;23.21;69.82;99992.91;2032076;28;19920;-52
2022/06/07 00:45:13;;;;;;;;;;;;;;;23.22;70.15;99999.19;2034791;28;20293;-54
2022/06/07 00:46:16;;;;;;;;;;;;;;;23.21;69.80;100003.97;2033548;29;19914;-53
2022/06/07 00:47:18;;;;;;;;;;;;;;;23.22;69.87;99990.88;2036163;28;19930;-54
2022/06/07 00:48:19;;;;;;;;;;;;;;;23.21;69.86;99998.44;2034646;28;20328;-54
2022/06/07 00:49:20;;;;;;;;;;;;;;;23.22;70.28;99996.41;2032538;29;19969;-53
2022/06/07 00:50:40;;;;;;;;;;;;;;;23.20;70.22;99994.13;2034444;28;19962;-53
2022/06/07 00:51:41;;;;;;;;;;;;;;;23.20;70.18;99994.13;2037359;28;20314;-53
2022/06/07 00:52:41;;;;;;;;;;;;;;;23.21;70.38;99995.66;2033469;29;19914;-53
2022/06/07 00:53:42;;;;;;;;;;;;;;;23.21;70.26;99998.44;2031787;28;19915;-56
2022/06/07 00:54:42;;;;;;;;;;;;;;;23.21;70.41;99994.91;2037151;29;20356;-53
2022/06/07 00:55:42;;;;;;;;;;;;;;;23.20;70.50;100002.41;2032647;28;20011;-53
2022/06/07 00:56:42;;;;;;;;;;;;;;;23.21;70.46;99997.66;2038544;28;19969;-52
2022/06/07 00:57:43;;;;;;;;;;;;;;;23.21;70.48;100003.97;2037721;28;19940;-54
2022/06/07 00:58:43;;;;;;;;;;;;;;;23.21;70.60;99998.44;2039133;28;19921;-53
2022/06/07 00:59:44;;;;;;;;;;;;;;;23.20;70.41;99999.66;2030937;28;19925;-54
2022/06/07 01:00:44;;;;;;;;;;;;;;;23.19;70.52;99998.09;2039601;28;19920;-54
2022/06/07 01:01:45;;;;;;;;;;;;;;;23.20;70.77;99999.66;2034230;28;20024;-54
2022/06/07 01:02:45;;;;;;;;;;;;;;;23.20;70.70;100002.41;2041327;28;19921;-53
2022/06/07 01:03:45;;;;;;;;;;;;;;;23.20;70.72;100002.41;2038373;28;20093;-54
2022/06/07 01:04:46;;;;;;;;;;;;;;;23.20;70.74;99996.88;2038817;28;19918;-54
2022/06/07 01:10:43;;;;;;;;;;;;;;;23.20;70.66;100002.41;2035746;28;19914;-53
2022/06/07 01:11:12;;;;;;;;;;;;;;;23.20;70.85;99998.88;2035263;28;20639;-53
2022/06/07 01:12:12;;;;;;;;;;;;;;;23.19;70.86;99998.09;2032825;28;20208;-54
2022/06/07 01:13:14;;;;;;;;;;;;;;;23.20;70.88;99996.09;2038990;28;20345;-54
2022/06/07 01:14:14;;;;;;;;;;;;;;;23.20;70.88;99994.13;2032323;28;20351;-55
2022/06/07 01:15:14;;;;;;;;;;;;;;;23.20;70.94;99990.59;2037281;29;19921;-51
2022/06/07 01:16:15;;;;;;;;;;;;;;;23.20;71.02;100002.41;2028072;29;19950;-53
2022/06/07 01:17:15;;;;;;;;;;;;;;;23.20;70.99;100004.41;2033843;28;19964;-53
2022/06/07 01:18:16;;;;;;;;;;;;;;;23.19;71.02;100006.38;2035911;28;20027;-51
2022/06/07 01:19:17;;;;;;;;;;;;;;;23.19;71.01;100011.91;2039651;28;19915;-54
2022/06/07 01:20:17;;;;;;;;;;;;;;;23.20;71.03;100004.41;2032964;29;19992;-53
2022/06/07 01:21:31;;;;;;;;;;;;;;;23.18;70.97;100004.81;2035826;28;20025;-54
2022/06/07 01:22:33;;;;;;;;;;;;;;;23.18;71.09;100004.81;2036422;28;19918;-54
2022/06/07 01:23:33;;;;;;;;;;;;;;;23.19;70.92;100011.91;2033118;28;20025;-54
2022/06/07 01:24:33;;;;;;;;;;;;;;;23.18;71.04;99999.31;2036155;28;19914;-53
2022/06/07 01:25:34;;;;;;;;;;;;;;;23.17;71.01;100009.56;2033702;28;19914;-50
2022/06/07 01:26:35;;;;;;;;;;;;;;;23.17;71.12;99995.75;2033695;28;19937;-51
2022/06/07 01:27:35;;;;;;;;;;;;;;;23.16;71.05;99996.97;2033805;28;19972;-53
2022/06/07 01:28:36;;;;;;;;;;;;;;;23.18;71.07;100010.34;2031636;28;20017;-53
2022/06/07 01:29:37;;;;;;;;;;;;;;;23.17;71.08;100003.28;2032441;28;19907;-54
2022/06/07 01:30:37;;;;;;;;;;;;;;;23.17;71.08;100009.56;2039429;28;20174;-52
2022/06/07 01:31:38;;;;;;;;;;;;;;;23.18;71.11;100007.59;2035471;28;19922;-53
2022/06/07 01:32:38;;;;;;;;;;;;;;;23.17;71.14;99997.75;2033387;28;19917;-53
2022/06/07 01:33:39;;;;;;;;;;;;;;;23.17;71.34;100003.28;2035755;28;19914;-53
2022/06/07 01:34:41;;;;;;;;;;;;;;;23.17;71.34;99997.75;2031535;28;20332;-54
2022/06/07 01:35:41;;;;;;;;;;;;;;;23.17;71.40;99989.47;2034661;28;20254;-54
2022/06/07 01:36:42;;;;;;;;;;;;;;;23.16;71.38;99996.19;2036043;28;19915;-51
2022/06/07 01:37:42;;;;;;;;;;;;;;;23.16;71.33;99996.97;2033071;28;19907;-53
2022/06/07 01:38:44;;;;;;;;;;;;;;;23.16;71.40;99993.44;2030412;28;20407;-54
2022/06/07 01:42:22;;;;;;;;;;;;;;;23.16;71.37;99990.69;2033723;29;20324;-53
2022/06/07 01:43:23;;;;;;;;;;;;;;;23.15;71.47;99991.91;2029698;28;19919;-53
2022/06/07 01:44:25;;;;;;;;;;;;;;;23.15;71.38;99987.16;2033612;28;19918;-54
2022/06/07 01:45:25;;;;;;;;;;;;;;;23.15;71.26;99989.16;2030878;28;19914;-52
2022/06/07 01:46:25;;;;;;;;;;;;;;;23.15;71.01;99991.91;2030873;28;19926;-51
2022/06/07 01:47:27;;;;;;;;;;;;;;;23.13;70.87;99986.03;2038137;28;19942;-51
2022/06/07 01:48:27;;;;;;;;;;;;;;;23.13;71.11;99986.03;2032211;28;20005;-53
2022/06/07 01:49:28;;;;;;;;;;;;;;;23.14;71.09;99993.13;2035865;28;19945;-53
2022/06/07 01:50:28;;;;;;;;;;;;;;;23.12;71.03;99985.28;2033262;29;20354;-54
2022/06/07 01:51:28;;;;;;;;;;;;;;;23.13;71.13;99988.81;2036652;29;19954;-53
2022/06/07 01:52:30;;;;;;;;;;;;;;;23.13;71.17;99997.09;2034151;29;19914;-54
2022/06/07 01:53:31;;;;;;;;;;;;;;;23.12;71.02;99995.53;2031472;28;20006;-53
2022/06/07 01:54:31;;;;;;;;;;;;;;;23.12;71.01;99984.50;2034289;29;19915;-53
2022/06/07 01:55:32;;;;;;;;;;;;;;;23.12;71.13;99992.78;2034643;28;19918;-54
2022/06/07 01:56:32;;;;;;;;;;;;;;;23.10;71.14;99987.72;2032303;28;19914;-56
2022/06/07 01:57:32;;;;;;;;;;;;;;;23.11;70.95;99988.47;2035913;28;19907;-53
2022/06/07 01:58:33;;;;;;;;;;;;;;;23.10;71.03;99986.94;2036447;28;19921;-52
2022/06/07 01:59:35;;;;;;;;;;;;;;;23.09;71.05;99988.16;2033730;28;20349;-54
2022/06/07 02:00:36;;;;;;;;;;;;;;;23.08;71.09;99986.59;2037465;29;20305;-53
2022/06/07 02:01:36;;;;;;;;;;;;;;;23.08;71.28;99981.06;2035567;28;19910;-53
2022/06/07 02:02:37;;;;;;;;;;;;;;;23.09;71.22;99982.63;2033532;28;19918;-53
2022/06/07 02:03:37;;;;;;;;;;;;;;;23.08;70.99;99983.84;2037888;28;20541;-54
2022/06/07 02:04:38;;;;;;;;;;;;;;;23.08;70.88;99978.31;2033034;28;19922;-53
2022/06/07 02:05:38;;;;;;;;;;;;;;;23.09;70.95;99980.66;2042301;28;19914;-53
2022/06/07 02:06:39;;;;;;;;;;;;;;;23.08;71.09;99975.56;2038503;28;19925;-53
2022/06/07 02:07:39;;;;;;;;;;;;;;;23.09;71.16;99977.88;2042075;28;19918;-54
2022/06/07 02:08:41;;;;;;;;;;;;;;;23.08;71.18;99973.56;2040596;28;20179;-53
2022/06/07 02:09:41;;;;;;;;;;;;;;;23.09;71.32;99979.88;2038222;28;19918;-54
2022/06/07 02:10:41;;;;;;;;;;;;;;;23.08;71.21;99981.06;2042290;28;19940;-53
2022/06/07 02:11:42;;;;;;;;;;;;;;;23.09;71.40;99974.34;2035568;28;19985;-53
2022/06/07 02:12:42;;;;;;;;;;;;;;;23.08;71.51;99981.06;2031223;28;19973;-54
2022/06/07 02:13:43;;;;;;;;;;;;;;;23.08;71.49;99981.06;2031499;28;19915;-52
2022/06/07 02:14:43;;;;;;;;;;;;;;;23.08;71.26;99978.31;2035877;28;20009;-52
2022/06/07 02:15:43;;;;;;;;;;;;;;;23.07;71.38;99966.50;2031948;29;20317;-51
2022/06/07 02:16:43;;;;;;;;;;;;;;;23.08;71.51;99973.56;2036330;28;20012;-53
2022/06/07 02:17:44;;;;;;;;;;;;;;;23.08;71.58;99979.09;2032444;29;19987;-53
2022/06/07 02:18:46;;;;;;;;;;;;;;;23.08;71.58;99986.59;2023007;29;20438;-54
2022/06/07 02:19:46;;;;;;;;;;;;;;;23.08;71.55;99990.13;2024129;29;20295;-54
2022/06/07 02:20:46;;;;;;;;;;;;;;;23.08;71.42;99994.88;2032966;28;20352;-53
2022/06/07 02:21:47;;;;;;;;;;;;;;;23.08;71.64;99994.88;2039167;28;19914;-53
2022/06/07 02:22:47;;;;;;;;;;;;;;;23.07;71.53;99999.63;2033700;28;19914;-53
2022/06/07 02:23:49;;;;;;;;;;;;;;;23.07;71.27;100002.41;2036698;29;19918;-52
2022/06/07 02:24:49;;;;;;;;;;;;;;;23.07;71.33;99993.34;2032925;28;20435;-59
2022/06/07 02:25:51;;;;;;;;;;;;;;;23.07;71.43;100002.41;2033194;28;19914;-52
2022/06/07 02:26:54;;;;;;;;;;;;;;;23.06;71.16;100000.84;2033813;28;20003;-54
2022/06/07 02:27:54;;;;;;;;;;;;;;;23.07;71.45;99993.34;2036552;28;20330;-53
2022/06/07 02:28:59;;;;;;;;;;;;;;;23.07;71.51;99999.63;2036025;28;19957;-52
2022/06/07 02:30:00;;;;;;;;;;;;;;;23.07;71.52;99998.88;2031183;28;19988;-53
2022/06/07 02:31:03;;;;;;;;;;;;;;;23.07;71.54;99990.56;2030322;29;19915;-52
2022/06/07 02:32:24;;;;;;;;;;;;;;;23.06;71.47;99987.03;2035229;28;19918;-53
2022/06/07 02:33:25;;;;;;;;;;;;;;;23.07;71.61;99990.56;2034756;29;19914;-53
2022/06/07 02:34:26;;;;;;;;;;;;;;;23.06;71.62;99992.56;2031605;28;19950;-54
2022/06/07 02:35:26;;;;;;;;;;;;;;;23.07;71.65;99987.81;2034135;29;20198;-52
2022/06/07 02:36:27;;;;;;;;;;;;;;;23.06;71.70;99983.50;2032894;28;19914;-53
2022/06/07 02:37:28;;;;;;;;;;;;;;;23.06;71.76;99976.00;2031732;28;19921;-52
2022/06/07 02:38:29;;;;;;;;;;;;;;;23.06;71.71;99977.97;2035551;28;20462;-53
2022/06/07 02:39:30;;;;;;;;;;;;;;;23.06;71.63;99970.47;2027087;29;19962;-51
2022/06/07 02:40:30;;;;;;;;;;;;;;;23.05;71.56;99974.44;2027219;29;19923;-54
2022/06/07 02:41:32;;;;;;;;;;;;;;;23.05;71.65;99979.97;2030670;28;19922;-53
2022/06/07 02:42:33;;;;;;;;;;;;;;;23.05;71.42;99984.75;2029407;28;19914;-54
2022/06/07 02:43:33;;;;;;;;;;;;;;;23.05;71.53;99977.19;2031783;28;20244;-54
2022/06/07 02:44:33;;;;;;;;;;;;;;;23.05;71.51;99976.44;2036466;28;19914;-53
2022/06/07 02:45:34;;;;;;;;;;;;;;;23.04;71.37;99983.97;2035495;28;19914;-53
2022/06/07 02:46:34;;;;;;;;;;;;;;;23.04;71.74;99983.19;2032692;28;19918;-54
2022/06/07 02:47:35;;;;;;;;;;;;;;;23.04;71.75;99970.16;2034531;28;20399;-53
2022/06/07 02:48:35;;;;;;;;;;;;;;;23.05;71.89;99970.94;2034050;29;20030;-52
2022/06/07 02:49:35;;;;;;;;;;;;;;;23.04;71.64;99983.19;2030040;29;19918;-52
2022/06/07 02:50:36;;;;;;;;;;;;;;;23.04;71.60;99977.66;2033987;28;19914;-53
2022/06/07 02:51:37;;;;;;;;;;;;;;;23.04;71.72;99972.13;2037520;28;20020;-54
2022/06/07 02:52:37;;;;;;;;;;;;;;;23.03;71.52;99974.13;2033935;28;20221;-53
2022/06/07 02:53:38;;;;;;;;;;;;;;;23.03;71.16;99976.88;2034690;29;20313;-53
2022/06/07 02:54:38;;;;;;;;;;;;;;;23.02;71.08;99980.09;2034123;29;19925;-54
2022/06/07 02:55:38;;;;;;;;;;;;;;;23.03;71.29;99987.16;2036246;28;19906;-52
2022/06/07 02:56:39;;;;;;;;;;;;;;;23.01;71.30;99979.31;2032208;28;20691;-53
2022/06/07 02:57:39;;;;;;;;;;;;;;;23.03;71.26;99992.69;2035571;28;20013;-53
2022/06/07 02:58:39;;;;;;;;;;;;;;;23.02;71.27;99994.66;2034700;29;20464;-54
2022/06/07 02:59:39;;;;;;;;;;;;;;;23.00;71.42;99986.03;2031420;28;19911;-53
2022/06/07 03:00:40;;;;;;;;;;;;;;;23.01;71.38;99982.06;2034648;29;20588;-53
2022/06/07 03:01:40;;;;;;;;;;;;;;;23.01;71.43;99993.13;2035304;29;20455;-53
2022/06/07 03:02:40;;;;;;;;;;;;;;;23.01;71.54;99989.56;2032211;28;20292;-53
2022/06/07 03:03:41;;;;;;;;;;;;;;;23.01;71.56;99992.34;2032394;28;19923;-54
2022/06/07 03:04:42;;;;;;;;;;;;;;;23.01;71.56;99989.56;2034307;28;19903;-54
2022/06/07 03:05:42;;;;;;;;;;;;;;;23.01;71.56;99986.81;2033349;28;19918;-54
2022/06/07 03:06:42;;;;;;;;;;;;;;;23.00;71.63;99977.00;2023524;29;20563;-51
2022/06/07 03:07:43;;;;;;;;;;;;;;;22.99;71.55;99976.22;2026630;29;19926;-52
2022/06/07 03:08:43;;;;;;;;;;;;;;;23.00;71.71;99982.53;2031743;29;20399;-51
2022/06/07 03:09:43;;;;;;;;;;;;;;;22.99;71.65;99980.97;2035377;28;20456;-51
2022/06/07 03:10:48;;;;;;;;;;;;;;;22.99;71.75;99984.53;2026624;29;19927;-53
2022/06/07 03:11:48;;;;;;;;;;;;;;;22.99;71.49;99987.28;2027849;29;19929;-50
2022/06/07 03:12:48;;;;;;;;;;;;;;;22.98;71.62;99985.72;2034531;28;19996;-55
2022/06/07 03:13:49;;;;;;;;;;;;;;;22.98;71.66;99985.72;2030903;29;19985;-53
2022/06/07 03:14:49;;;;;;;;;;;;;;;23.00;71.70;99988.06;2035266;28;19922;-53
2022/06/07 03:15:49;;;;;;;;;;;;;;;22.99;71.74;99983.75;2037092;28;19933;-54
2022/06/07 03:16:50;;;;;;;;;;;;;;;22.99;71.65;99986.50;2033097;28;19973;-54
2022/06/07 03:17:50;;;;;;;;;;;;;;;22.99;70.97;99983.75;2033119;28;19918;-52
2022/06/07 03:18:51;;;;;;;;;;;;;;;22.98;71.51;99985.72;2023935;29;20417;-54
2022/06/07 03:19:51;;;;;;;;;;;;;;;22.98;71.51;99977.44;2025772;29;19915;-55
2022/06/07 03:20:51;;;;;;;;;;;;;;;22.98;71.57;99984.94;2029144;29;19914;-55
2022/06/07 03:21:52;;;;;;;;;;;;;;;22.98;71.56;99982.97;2032570;28;19922;-55
2022/06/07 03:22:52;;;;;;;;;;;;;;;22.99;71.48;99986.50;2035993;29;19980;-55
2022/06/07 03:23:53;;;;;;;;;;;;;;;22.99;71.47;99986.50;2036198;29;19925;-54
2022/06/07 03:24:53;;;;;;;;;;;;;;;22.99;71.31;99986.50;2034431;28;19918;-54
2022/06/07 03:26:02;;;;;;;;;;;;;;;22.98;71.28;99984.94;2028437;29;19961;-55
2022/06/07 03:27:02;;;;;;;;;;;;;;;22.97;71.20;99986.16;2027949;28;20510;-54
2022/06/07 03:28:03;;;;;;;;;;;;;;;22.98;70.88;99984.94;2033887;28;19917;-54
2022/06/07 03:29:03;;;;;;;;;;;;;;;22.96;70.97;99981.84;2029063;28;19942;-54
2022/06/07 03:30:06;;;;;;;;;;;;;;;22.96;70.80;99987.38;2028847;28;20376;-56
2022/06/07 03:31:12;;;;;;;;;;;;;;;22.96;70.82;99984.59;2030109;29;20006;-54
2022/06/07 03:32:12;;;;;;;;;;;;;;;22.96;70.65;99992.91;2035352;28;19921;-55
2022/06/07 03:33:13;;;;;;;;;;;;;;;22.94;70.49;99995.34;2032612;28;20300;-55
2022/06/07 03:34:13;;;;;;;;;;;;;;;22.94;70.60;100003.63;2034417;28;20388;-55
2022/06/07 03:35:14;;;;;;;;;;;;;;;22.93;70.64;100004.84;2025959;29;19915;-54
2022/06/07 03:36:17;;;;;;;;;;;;;;;22.94;70.73;100006.38;2026211;29;19969;-55
2022/06/07 03:37:18;;;;;;;;;;;;;;;22.95;70.75;100005.16;2028608;28;20575;-55
2022/06/07 03:38:18;;;;;;;;;;;;;;;22.91;70.96;100001.72;2033328;28;20181;-54
2022/06/07 03:39:18;;;;;;;;;;;;;;;22.85;70.80;100014.53;2036670;28;20223;-54
2022/06/07 03:40:43;;;;;;;;;;;;;;;22.83;70.46;100009.47;2034318;29;19948;-55
2022/06/07 03:41:39;;;;;;;;;;;;;;;22.83;70.54;100005.94;2034123;28;19964;-56
2022/06/07 03:42:39;;;;;;;;;;;;;;;22.83;70.37;100003.16;2038214;29;19915;-55
2022/06/07 03:43:39;;;;;;;;;;;;;;;22.83;70.19;100009.47;2029110;28;19941;-56
2022/06/07 03:44:40;;;;;;;;;;;;;;;22.85;70.31;100001.50;2029686;28;20150;-56
2022/06/07 03:45:41;;;;;;;;;;;;;;;22.85;70.24;100001.50;2035277;28;19949;-56
2022/06/07 03:46:42;;;;;;;;;;;;;;;22.85;70.38;99998.75;2037080;28;19949;-56
2022/06/07 03:47:44;;;;;;;;;;;;;;;22.86;70.42;100002.28;2032079;29;19915;-56
2022/06/07 03:48:45;;;;;;;;;;;;;;;22.84;70.68;99999.22;2033867;28;20332;-55
2022/06/07 03:49:46;;;;;;;;;;;;;;;22.84;70.58;99996.44;2036015;28;19918;-56
2022/06/07 03:50:46;;;;;;;;;;;;;;;22.85;70.74;99997.97;2036933;29;19917;-55
2022/06/07 03:51:47;;;;;;;;;;;;;;;22.85;70.53;100003.50;2035684;29;19921;-55
2022/06/07 03:52:47;;;;;;;;;;;;;;;22.85;70.47;100009.78;2040086;28;19915;-55
2022/06/07 03:53:48;;;;;;;;;;;;;;;22.86;70.81;100005.81;2037624;29;19914;-55
2022/06/07 03:54:49;;;;;;;;;;;;;;;22.86;71.26;100003.06;2036274;29;20700;-54
2022/06/07 03:55:52;;;;;;;;;;;;;;;22.86;71.65;100008.56;2037077;29;19996;-56
2022/06/07 03:56:52;;;;;;;;;;;;;;;22.86;71.36;100011.34;2030820;29;20354;-56
2022/06/07 03:57:53;;;;;;;;;;;;;;;22.86;71.43;100005.03;2032453;28;19922;-56
2022/06/07 03:58:53;;;;;;;;;;;;;;;22.87;71.51;100009.34;2030347;29;19921;-56
2022/06/07 03:59:53;;;;;;;;;;;;;;;22.86;71.16;100010.56;2029608;29;19920;-56
2022/06/07 04:00:58;;;;;;;;;;;;;;;22.84;70.80;100007.50;2036437;28;20599;-56
2022/06/07 04:01:58;;;;;;;;;;;;;;;22.86;70.75;100018.84;2045039;28;19914;-56
2022/06/07 04:02:58;;;;;;;;;;;;;;;22.86;71.26;100016.88;2040311;28;19997;-54
2022/06/07 04:04:01;;;;;;;;;;;;;;;22.86;71.63;100021.59;2038893;29;20105;-55
2022/06/07 04:05:01;;;;;;;;;;;;;;;22.85;72.55;100014.53;2036901;28;19914;-55
2022/06/07 04:06:02;;;;;;;;;;;;;;;22.85;72.84;100012.56;2036730;28;19906;-54
2022/06/07 04:08:22;;;;;;;;;;;;;;;22.87;71.32;100017.63;2037680;28;19914;-54
2022/06/07 04:09:23;;;;;;;;;;;;;;;22.84;71.42;100008.22;2038423;28;19918;-55
2022/06/07 04:10:23;;;;;;;;;;;;;;;22.84;71.55;100018.53;2044516;28;19913;-54
2022/06/07 04:11:24;;;;;;;;;;;;;;;22.84;72.54;100018.53;2039682;28;20320;-56
2022/06/07 04:12:24;;;;;;;;;;;;;;;22.82;72.29;100021.72;2036581;28;19921;-55
2022/06/07 04:13:26;;;;;;;;;;;;;;;22.83;72.27;100014.22;2037209;29;19933;-56
2022/06/07 04:14:27;;;;;;;;;;;;;;;22.83;72.41;100017.75;2035041;28;19956;-54
2022/06/07 04:15:27;;;;;;;;;;;;;;;22.82;71.50;100012.66;2029176;29;20357;-55
2022/06/07 04:16:30;;;;;;;;;;;;;;;22.82;70.72;100024.50;2024050;29;19915;-54
2022/06/07 04:17:30;;;;;;;;;;;;;;;22.82;70.79;100030.00;2031628;29;19914;-56
2022/06/07 04:18:30;;;;;;;;;;;;;;;22.82;70.65;100010.69;2036562;28;19921;-56
2022/06/07 04:19:33;;;;;;;;;;;;;;;22.81;70.88;100016.63;2041143;28;19945;-56
2022/06/07 04:20:33;;;;;;;;;;;;;;;22.80;70.44;100023.38;2036359;28;19937;-55
2022/06/07 04:21:33;;;;;;;;;;;;;;;22.82;70.38;100015.44;2039560;28;20298;-55
2022/06/07 04:22:34;;;;;;;;;;;;;;;22.80;70.27;100023.38;2040415;29;19921;-56
2022/06/07 04:23:34;;;;;;;;;;;;;;;22.80;69.57;100020.59;2036147;28;19918;-56
2022/06/07 04:24:34;;;;;;;;;;;;;;;22.80;69.99;100018.63;2036754;28;20329;-56
2022/06/07 04:25:36;;;;;;;;;;;;;;;22.80;70.32;100023.38;2029207;29;19911;-55
2022/06/07 04:26:36;;;;;;;;;;;;;;;22.78;70.30;100015.53;2030577;29;19915;-55
2022/06/07 04:27:36;;;;;;;;;;;;;;;22.78;70.16;100018.31;2038227;29;20248;-54
2022/06/07 04:28:37;;;;;;;;;;;;;;;22.78;70.14;100025.81;2029812;29;19961;-55
2022/06/07 04:29:38;;;;;;;;;;;;;;;22.78;70.13;100023.81;2030535;29;19910;-56
2022/06/07 04:30:41;;;;;;;;;;;;;;;22.78;70.11;100025.81;2031272;29;19914;-57
2022/06/07 04:31:42;;;;;;;;;;;;;;;22.76;70.55;100020.72;2037208;29;19957;-56
2022/06/07 04:32:46;;;;;;;;;;;;;;;22.77;70.27;100024.25;2035311;29;19914;-55
2022/06/07 04:33:47;;;;;;;;;;;;;;;22.76;70.37;100022.72;2030047;29;20360;-56
2022/06/07 04:34:47;;;;;;;;;;;;;;;22.76;70.58;100028.22;2030859;28;19993;-54
2022/06/07 04:35:47;;;;;;;;;;;;;;;22.76;70.45;100025.47;2030464;29;20357;-55
2022/06/07 04:36:48;;;;;;;;;;;;;;;22.75;70.44;100041.25;2032245;28;19933;-55
2022/06/07 04:37:48;;;;;;;;;;;;;;;22.76;70.44;100044.78;2037450;28;19938;-56
2022/06/07 04:38:50;;;;;;;;;;;;;;;22.76;70.29;100040.03;2033789;28;20914;-55
2022/06/07 04:39:50;;;;;;;;;;;;;;;22.75;70.24;100038.50;2043520;28;20070;-56
2022/06/07 04:40:50;;;;;;;;;;;;;;;22.76;70.15;100047.56;2037509;28;20154;-56
2022/06/07 04:41:51;;;;;;;;;;;;;;;22.77;69.88;100046.34;2036688;28;19914;-56
2022/06/07 04:42:51;;;;;;;;;;;;;;;22.76;70.11;100036.50;2037955;29;19941;-55
2022/06/07 04:43:52;;;;;;;;;;;;;;;22.74;70.13;100042.47;2036552;29;19925;-55
2022/06/07 04:44:52;;;;;;;;;;;;;;;22.73;70.19;100041.72;2036567;29;19918;-55
2022/06/07 04:46:01;;;;;;;;;;;;;;;22.74;70.05;100042.47;2038598;29;19914;-56
2022/06/07 04:47:02;;;;;;;;;;;;;;;22.73;69.83;100036.19;2036539;28;20008;-55
2022/06/07 04:48:03;;;;;;;;;;;;;;;22.72;69.89;100034.63;2037777;28;19914;-55
2022/06/07 04:49:04;;;;;;;;;;;;;;;22.72;69.96;100031.88;2037403;29;20009;-56
2022/06/07 04:50:04;;;;;;;;;;;;;;;22.70;69.85;100031.50;2037162;29;19972;-56
2022/06/07 04:51:07;;;;;;;;;;;;;;;22.73;69.81;100036.19;2036155;28;20078;-56
2022/06/07 04:52:07;;;;;;;;;;;;;;;22.73;69.83;100027.91;2036481;28;20049;-54
2022/06/07 04:53:07;;;;;;;;;;;;;;;22.72;70.34;100040.16;2038038;29;19914;-56
2022/06/07 04:54:08;;;;;;;;;;;;;;;22.74;70.02;100043.25;2033256;28;20695;-56
2022/06/07 04:55:09;;;;;;;;;;;;;;;22.71;69.90;100044.13;2030089;29;20398;-55
2022/06/07 04:56:12;;;;;;;;;;;;;;;22.72;70.07;100045.69;2031239;28;19915;-55
2022/06/07 04:57:12;;;;;;;;;;;;;;;22.71;70.42;100044.13;2038646;29;19918;-56
2022/06/07 04:58:13;;;;;;;;;;;;;;;22.72;70.07;100042.91;2036092;29;19980;-55
2022/06/07 04:59:13;;;;;;;;;;;;;;;22.72;70.10;100047.66;2037314;28;19950;-56
2022/06/07 05:00:15;;;;;;;;;;;;;;;22.70;70.09;100037.03;2030034;29;19914;-55
2022/06/07 05:01:16;;;;;;;;;;;;;;;22.70;70.02;100039.00;2029108;28;19958;-55
2022/06/07 05:02:17;;;;;;;;;;;;;;;22.70;70.20;100045.31;2030258;29;19903;-56
2022/06/07 05:03:17;;;;;;;;;;;;;;;22.71;70.29;100046.13;2035592;28;19914;-54
2022/06/07 05:04:17;;;;;;;;;;;;;;;22.69;69.99;100046.50;2036268;29;19914;-53
2022/06/07 05:05:18;;;;;;;;;;;;;;;22.71;70.03;100046.13;2038538;29;19914;-53
2022/06/07 05:06:23;;;;;;;;;;;;;;;22.71;70.33;100048.88;2036037;29;20120;-55
2022/06/07 05:07:23;;;;;;;;;;;;;;;22.70;70.09;100053.59;2035936;29;19914;-56
2022/06/07 05:08:24;;;;;;;;;;;;;;;22.69;69.73;100052.03;2031288;28;19966;-56
2022/06/07 05:09:27;;;;;;;;;;;;;;;22.69;70.22;100046.50;2030236;28;20225;-54
2022/06/07 05:10:27;;;;;;;;;;;;;;;22.69;70.69;100052.03;2045612;28;19910;-54
2022/06/07 05:11:27;;;;;;;;;;;;;;;22.69;69.96;100057.56;2036568;28;20494;-55
2022/06/07 05:12:30;;;;;;;;;;;;;;;22.69;70.25;100054.03;2037170;28;19910;-55
2022/06/07 05:13:31;;;;;;;;;;;;;;;22.69;69.98;100056.78;2036738;29;20016;-54
2022/06/07 05:14:32;;;;;;;;;;;;;;;22.70;69.75;100058.34;2035799;29;19933;-55
2022/06/07 05:15:32;;;;;;;;;;;;;;;22.69;69.75;100051.25;2037704;28;19914;-54
2022/06/07 05:16:36;;;;;;;;;;;;;;;22.69;69.45;100052.03;2037583;29;19922;-55
2022/06/07 05:17:36;;;;;;;;;;;;;;;22.70;69.61;100047.28;2035489;28;20349;-54
2022/06/07 05:18:36;;;;;;;;;;;;;;;22.70;69.69;100048.06;2039238;29;19915;-55
2022/06/07 05:19:37;;;;;;;;;;;;;;;22.70;69.85;100056.34;2036631;29;20309;-55
2022/06/07 05:20:38;;;;;;;;;;;;;;;22.70;69.79;100052.81;2037206;28;19914;-56
2022/06/07 05:21:39;;;;;;;;;;;;;;;22.69;69.55;100057.56;2035144;28;19914;-54
2022/06/07 05:22:39;;;;;;;;;;;;;;;22.69;69.54;100054.78;2035634;28;19910;-54
2022/06/07 05:23:39;;;;;;;;;;;;;;;22.69;69.45;100057.56;2038056;28;20740;-56